Terminal Aerodrome Forecast
Issued by NWS Boston, MA

Home | Current Version | Previous Version | Text Only | Print | Product List | Glossary On
Versions: 1 2 3 4 5 6 7 8 9 10 11 12 13 14 15 16 17 18 19 20 21
000
FTUS41 KBOX 182105 AAA
TAFPVD
TAF AMD
KPVD 182105Z 1821/1918 VRB03KT 3SM BR OVC015
     FM190200 24005KT P6SM BKN050
     FM191300 26006KT P6SM SCT150
     FM191500 25008G19KT P6SM SCT060=

USA.gov is the U.S. government's official web portal to all federal, state and local government web resources and services.